Time;durP1;ratioP1;P1;durP2;ratioP2;P2;SDS_P1;SDS_P2;PMS_P1;PMS_P2;Temp;Humidity;BMP_temperature;BMP_pressure;BME280_temperature;BME280_humidity;BME280_pressure;Samples;Min_cycle;Max_cycle;Signal;HPM_P1;HPM_P2
2023/12/14 04:56:28;;;;;;;;;;;;;;;;;;6201227;22;19942;-73
2023/12/14 04:58:55;;;;;;;;;;;;;;;;;;6247054;23;19976;-73
2023/12/14 05:01:22;;;;;;;;;;;;;;;;;;6247469;23;19920;-73
2023/12/14 05:03:49;;;;;;;;;;;;;;;;;;6247387;23;19942;-71
2023/12/14 05:06:15;;;;;;;;;;;;;;;;;;6247266;23;19924;-70
2023/12/14 05:08:42;;;;;;;;;;;;;;;;;;6247270;23;19927;-70
2023/12/14 05:11:09;;;;;;;;;;;;;;;;;;6247772;23;19919;-75
2023/12/14 05:13:36;;;;;;;;;;;;;;;;;;6248192;23;19927;-71
2023/12/14 05:16:03;;;;;;;;;;;;;;;;;;6246965;23;19920;-71
2023/12/14 05:18:30;;;;;;;;;;;;;;;;;;6247204;23;19920;-71
2023/12/14 05:20:57;;;;;;;;;;;;;;;;;;6247306;23;19943;-74
2023/12/14 05:23:24;;;;;;;;;;;;;;;;;;6246838;23;19919;-74
2023/12/14 05:25:51;;;;;;;;;;;;;;;;;;6247194;23;19969;-73
2023/12/14 05:28:18;;;;;;;;;;;;;;;;;;6246977;23;19927;-73
2023/12/14 05:30:45;;;;;;;;;;;;;;;;;;6248229;23;19931;-73
2023/12/14 05:33:12;;;;;;;;;;;;;;;;;;6247178;23;19927;-74
2023/12/14 05:35:39;;;;;;;;;;;;;;;;;;6247696;23;19923;-69
2023/12/14 05:38:06;;;;;;;;;;;;;;;;;;6247226;23;19924;-71
2023/12/14 05:40:33;;;;;;;;;;;;;;;;;;6247226;23;19920;-71
2023/12/14 05:42:59;;;;;;;;;;;;;;;;;;6247380;23;20262;-71
2023/12/14 05:45:26;;;;;;;;;;;;;;;;;;6247409;23;19920;-71
2023/12/14 05:47:53;;;;;;;;;;;;;;;;;;6247102;23;19934;-71
2023/12/14 05:50:21;;;;;;;;;;;;;;;;;;6246927;23;19929;-71
2023/12/14 05:52:48;;;;;;;;;;;;;;;;;;6246450;23;20350;-71
2023/12/14 05:55:18;;;;;;;;;;;;;;;;;;6246842;23;19931;-71
2023/12/14 05:57:45;;;;;;;;;;;;;;;;;;6246254;23;20254;-71
2023/12/14 06:00:12;;;;;;;;;;;;;;;;;;6246774;23;19919;-71
2023/12/14 06:02:39;;;;;;;;;;;;;;;;;;6246699;23;20378;-72
2023/12/14 06:05:06;;;;;;;;;;;;;;;;;;6246846;23;19919;-72
2023/12/14 06:07:33;;;;;;;;;;;;;;;;;;6246810;23;19927;-71
2023/12/14 06:10:00;;;;;;;;;;;;;;;;;;6247076;23;19920;-70
2023/12/14 08:57:29;;;;;;;;;;;;;;;;;;6231743;22;19920;-70
2023/12/14 08:59:56;;;;;;;;;;;;;;;;;;6247269;22;20311;-71
2023/12/14 09:02:23;;;;;;;;;;;;;;;;;;6247646;23;19927;-72
2023/12/14 09:04:50;;;;;;;;;;;;;;;;;;6247643;23;19919;-72
2023/12/14 09:07:17;;;;;;;;;;;;;;;;;;6247123;23;19920;-72
2023/12/14 09:09:43;;;;;;;;;;;;;;;;;;6247420;23;19928;-71
2023/12/14 09:12:10;;;;;;;;;;;;;;;;;;6248333;23;19942;-71
2023/12/14 09:14:37;;;;;;;;;;;;;;;;;;6247388;23;19920;-71
2023/12/14 09:17:04;;;;;;;;;;;;;;;;;;6248955;23;19942;-71
2023/12/14 09:19:31;;;;;;;;;;;;;;;;;;6247244;23;20414;-71
2023/12/14 09:21:58;;;;;;;;;;;;;;;;;;6247465;23;19923;-71
2023/12/14 09:24:25;;;;;;;;;;;;;;;;;;6247802;23;19920;-71
2023/12/14 09:26:52;;;;;;;;;;;;;;;;;;6246990;23;20228;-71
2023/12/14 09:29:19;;;;;;;;;;;;;;;;;;6247589;23;19923;-71
2023/12/14 09:31:46;;;;;;;;;;;;;;;;;;6247279;23;19955;-71
2023/12/14 09:34:13;;;;;;;;;;;;;;;;;;6247137;23;19921;-71
2023/12/14 09:36:40;;;;;;;;;;;;;;;;;;6246794;23;20315;-72
2023/12/14 09:39:10;;;;;;;;;;;;;;;;;;6246871;23;19919;-72
2023/12/14 09:41:37;;;;;;;;;;;;;;;;;;6247222;23;19919;-72
2023/12/14 09:44:05;;;;;;;;;;;;;;;;;;6247164;23;19925;-72
2023/12/14 09:46:32;;;;;;;;;;;;;;;;;;6247476;23;19920;-72
2023/12/14 09:48:59;;;;;;;;;;;;;;;;;;6247113;23;19920;-72
2023/12/14 09:51:26;;;;;;;;;;;;;;;;;;6246698;23;19927;-72
2023/12/14 09:53:57;;;;;;;;;;;;;;;;;;6246633;23;19981;-73
2023/12/14 09:56:25;;;;;;;;;;;;;;;;;;6246974;23;19954;-73
2023/12/14 09:58:51;;;;;;;;;;;;;;;;;;6246820;23;19926;-72
2023/12/14 10:01:18;;;;;;;;;;;;;;;;;;6246867;23;20350;-74
2023/12/14 10:03:45;;;;;;;;;;;;;;;;;;6247444;23;19919;-72
2023/12/14 10:06:12;;;;;;;;;;;;;;;;;;6246847;23;19926;-72
2023/12/14 10:08:39;;;;;;;;;;;;;;;;;;6247012;23;19920;-72
2023/12/14 10:11:11;;;;;;;;;;;;;;;;;;6246886;23;19975;-71
2023/12/14 10:13:38;;;;;;;;;;;;;;;;;;6246545;23;20336;-72
2023/12/14 10:16:05;;;;;;;;;;;;;;;;;;6247540;23;19975;-72
2023/12/14 10:18:34;;;;;;;;;;;;;;;;;;6246532;23;20339;-73
2023/12/14 10:21:01;;;;;;;;;;;;;;;;;;6246922;23;19924;-73
2023/12/14 10:23:27;;;;;;;;;;;;;;;;;;6246765;23;19926;-73
2023/12/14 10:25:55;;;;;;;;;;;;;;;;;;6246638;23;19942;-73
2023/12/14 10:28:22;;;;;;;;;;;;;;;;;;6246761;23;19943;-73
2023/12/14 10:30:48;;;;;;;;;;;;;;;;;;6246239;23;20379;-73
2023/12/14 10:33:16;;;;;;;;;;;;;;;;;;6246553;23;19926;-73
2023/12/14 10:35:45;;;;;;;;;;;;;;;;;;6246789;23;19965;-73
2023/12/14 10:38:13;;;;;;;;;;;;;;;;;;6246695;23;19970;-72
2023/12/14 10:40:43;;;;;;;;;;;;;;;;;;6246618;23;19919;-72
2023/12/14 10:43:10;;;;;;;;;;;;;;;;;;6246329;23;20341;-72
2023/12/14 10:45:37;;;;;;;;;;;;;;;;;;6247187;23;19919;-72
2023/12/14 10:48:04;;;;;;;;;;;;;;;;;;6246715;23;19919;-72
2023/12/14 10:50:31;;;;;;;;;;;;;;;;;;6247022;23;19919;-72
2023/12/14 10:52:58;;;;;;;;;;;;;;;;;;6248717;23;19920;-72
2023/12/14 10:55:25;;;;;;;;;;;;;;;;;;6248793;23;19919;-73
2023/12/14 10:57:52;;;;;;;;;;;;;;;;;;6248331;23;19926;-72
2023/12/14 11:00:19;;;;;;;;;;;;;;;;;;6248700;23;19923;-72
2023/12/14 11:02:46;;;;;;;;;;;;;;;;;;6248660;23;19919;-72
2023/12/14 11:05:15;;;;;;;;;;;;;;;;;;6248574;23;19943;-72
2023/12/14 11:07:42;;;;;;;;;;;;;;;;;;6248577;23;19951;-72
2023/12/14 11:10:09;;;;;;;;;;;;;;;;;;6248326;23;19923;-73
2023/12/14 11:12:36;;;;;;;;;;;;;;;;;;6248770;23;19923;-73
2023/12/14 11:15:03;;;;;;;;;;;;;;;;;;6248389;23;20357;-73
2023/12/14 11:17:31;;;;;;;;;;;;;;;;;;6248781;23;20001;-73
2023/12/14 11:19:58;;;;;;;;;;;;;;;;;;6248100;23;20339;-73
2023/12/14 11:22:25;;;;;;;;;;;;;;;;;;6249620;23;19927;-73
2023/12/14 11:24:52;;;;;;;;;;;;;;;;;;6250584;23;19919;-73
2023/12/14 11:27:18;;;;;;;;;;;;;;;;;;6248411;23;20306;-71
2023/12/14 11:29:45;;;;;;;;;;;;;;;;;;6248516;23;20331;-72
2023/12/14 11:32:12;;;;;;;;;;;;;;;;;;6248502;23;19927;-72
2023/12/14 11:34:39;;;;;;;;;;;;;;;;;;6248063;23;20347;-72
2023/12/14 11:37:06;;;;;;;;;;;;;;;;;;6248786;23;19920;-72
2023/12/14 11:39:32;;;;;;;;;;;;;;;;;;6248484;23;19986;-73
2023/12/14 11:41:59;;;;;;;;;;;;;;;;;;6248327;23;19931;-72
2023/12/14 11:44:26;;;;;;;;;;;;;;;;;;6248042;23;19919;-72
2023/12/14 11:46:54;;;;;;;;;;;;;;;;;;6248518;23;19919;-73
2023/12/14 11:49:21;;;;;;;;;;;;;;;;;;6247865;23;20309;-73
2023/12/14 11:51:47;;;;;;;;;;;;;;;;;;6248267;23;19919;-73
2023/12/14 11:54:15;;;;;;;;;;;;;;;;;;6248232;23;20246;-73
2023/12/14 11:56:42;;;;;;;;;;;;;;;;;;6248439;23;19927;-71
2023/12/14 11:59:09;;;;;;;;;;;;;;;;;;6247758;23;19923;-73
2023/12/14 12:01:37;;;;;;;;;;;;;;;;;;6247848;23;19919;-73
2023/12/14 12:04:04;;;;;;;;;;;;;;;;;;6248301;23;19934;-70
2023/12/14 12:06:31;;;;;;;;;;;;;;;;;;6248114;23;19919;-70
2023/12/14 12:08:58;;;;;;;;;;;;;;;;;;6248187;23;19977;-70
2023/12/14 12:11:27;;;;;;;;;;;;;;;;;;6248128;23;20355;-70
2023/12/14 12:13:54;;;;;;;;;;;;;;;;;;6247953;23;20019;-70
2023/12/14 12:16:21;;;;;;;;;;;;;;;;;;6247932;23;20030;-70
2023/12/14 12:18:48;;;;;;;;;;;;;;;;;;6247948;23;19919;-70
2023/12/14 12:21:14;;;;;;;;;;;;;;;;;;6247923;23;20003;-69
2023/12/14 12:23:42;;;;;;;;;;;;;;;;;;6247963;23;19919;-70
2023/12/14 12:26:09;;;;;;;;;;;;;;;;;;6247920;23;19973;-70
2023/12/14 12:28:36;;;;;;;;;;;;;;;;;;6248524;23;19927;-69
2023/12/14 12:31:04;;;;;;;;;;;;;;;;;;6248755;23;19927;-70
2023/12/14 12:33:31;;;;;;;;;;;;;;;;;;6248329;23;20247;-70
2023/12/14 12:35:58;;;;;;;;;;;;;;;;;;6248822;23;19920;-70
2023/12/14 12:38:24;;;;;;;;;;;;;;;;;;6248991;23;19919;-70
2023/12/14 12:40:51;;;;;;;;;;;;;;;;;;6249288;23;19927;-70
2023/12/14 12:43:19;;;;;;;;;;;;;;;;;;6250048;23;20273;-70
2023/12/14 12:45:46;;;;;;;;;;;;;;;;;;6252626;23;19919;-72
2023/12/14 12:48:13;;;;;;;;;;;;;;;;;;6252134;23;19920;-70
2023/12/14 12:50:40;;;;;;;;;;;;;;;;;;6250213;23;19924;-70
2023/12/14 12:53:07;;;;;;;;;;;;;;;;;;6250355;23;19920;-69
2023/12/14 12:55:34;;;;;;;;;;;;;;;;;;6251292;23;19923;-72
2023/12/14 12:58:05;;;;;;;;;;;;;;;;;;6251048;23;19920;-72
2023/12/14 13:00:33;;;;;;;;;;;;;;;;;;6247949;23;19942;-73
2023/12/14 13:03:01;;;;;;;;;;;;;;;;;;6247977;23;19923;-72
2023/12/14 13:05:27;;;;;;;;;;;;;;;;;;6247460;23;19973;-72
2023/12/14 13:07:55;;;;;;;;;;;;;;;;;;6247056;23;20319;-73
2023/12/14 13:10:26;;;;;;;;;;;;;;;;;;6247472;23;19966;-73
2023/12/14 13:12:53;;;;;;;;;;;;;;;;;;6247030;23;19942;-73
2023/12/14 13:15:20;;;;;;;;;;;;;;;;;;6247219;23;19923;-73
2023/12/14 13:17:47;;;;;;;;;;;;;;;;;;6247369;23;19942;-73
2023/12/14 13:20:14;;;;;;;;;;;;;;;;;;6246970;23;20316;-73
2023/12/14 13:22:41;;;;;;;;;;;;;;;;;;6247251;23;19919;-73
2023/12/14 13:25:09;;;;;;;;;;;;;;;;;;6247393;23;19920;-73
2023/12/14 13:27:36;;;;;;;;;;;;;;;;;;6247202;23;19994;-73
2023/12/14 13:30:04;;;;;;;;;;;;;;;;;;6247260;23;19974;-73
2023/12/14 13:32:31;;;;;;;;;;;;;;;;;;6247223;23;19919;-73
2023/12/14 13:34:58;;;;;;;;;;;;;;;;;;6247087;23;19942;-74
2023/12/14 13:37:24;;;;;;;;;;;;;;;;;;6247117;23;19920;-72
2023/12/14 13:39:52;;;;;;;;;;;;;;;;;;6246759;23;20359;-71
2023/12/14 13:42:19;;;;;;;;;;;;;;;;;;6247104;23;19923;-71
2023/12/14 13:44:46;;;;;;;;;;;;;;;;;;6247064;23;19920;-71
2023/12/14 13:47:13;;;;;;;;;;;;;;;;;;6246844;23;19920;-72
2023/12/14 13:49:40;;;;;;;;;;;;;;;;;;6247071;23;19946;-70
2023/12/14 13:52:07;;;;;;;;;;;;;;;;;;6247014;23;19920;-72
2023/12/14 13:54:35;;;;;;;;;;;;;;;;;;6246883;23;20224;-72
2023/12/14 13:57:02;;;;;;;;;;;;;;;;;;6246768;23;20236;-72
2023/12/14 13:59:29;;;;;;;;;;;;;;;;;;6246548;23;19920;-72
2023/12/14 14:01:56;;;;;;;;;;;;;;;;;;6247902;23;19920;-72
2023/12/14 14:04:23;;;;;;;;;;;;;;;;;;6248198;23;19927;-71
2023/12/14 14:06:50;;;;;;;;;;;;;;;;;;6247638;23;19998;-72
2023/12/14 14:09:16;;;;;;;;;;;;;;;;;;6248112;23;19962;-71
2023/12/14 14:11:47;;;;;;;;;;;;;;;;;;6248065;23;20430;-72
2023/12/14 14:14:14;;;;;;;;;;;;;;;;;;6248050;23;20319;-71
2023/12/14 14:16:41;;;;;;;;;;;;;;;;;;6248302;23;19947;-72
2023/12/14 14:19:08;;;;;;;;;;;;;;;;;;6247850;23;19919;-72
2023/12/14 14:21:35;;;;;;;;;;;;;;;;;;6248201;23;19924;-71
2023/12/14 14:24:02;;;;;;;;;;;;;;;;;;6247220;23;19920;-72
2023/12/14 14:26:29;;;;;;;;;;;;;;;;;;6247900;23;19943;-72
2023/12/14 14:28:59;;;;;;;;;;;;;;;;;;6248072;23;19927;-70
2023/12/14 14:31:29;;;;;;;;;;;;;;;;;;6248242;23;20002;-70
2023/12/14 14:33:56;;;;;;;;;;;;;;;;;;6247781;23;19974;-70
2023/12/14 14:36:23;;;;;;;;;;;;;;;;;;6247859;23;19919;-70
2023/12/14 14:38:53;;;;;;;;;;;;;;;;;;6248226;23;20365;-70
2023/12/14 14:41:20;;;;;;;;;;;;;;;;;;6248113;23;19923;-70
2023/12/14 14:43:47;;;;;;;;;;;;;;;;;;6246746;23;19920;-70
2023/12/14 14:46:14;;;;;;;;;;;;;;;;;;6246666;23;19982;-71
2023/12/14 14:48:41;;;;;;;;;;;;;;;;;;6246855;23;19920;-69
2023/12/14 14:51:08;;;;;;;;;;;;;;;;;;6246700;23;19919;-69
2023/12/14 14:53:37;;;;;;;;;;;;;;;;;;6246869;23;19927;-69
2023/12/14 14:56:03;;;;;;;;;;;;;;;;;;6246581;23;19924;-68
2023/12/14 14:58:30;;;;;;;;;;;;;;;;;;6246370;23;20347;-69
2023/12/14 15:00:57;;;;;;;;;;;;;;;;;;6246767;23;19994;-69
2023/12/14 15:03:24;;;;;;;;;;;;;;;;;;6246689;23;19919;-69
2023/12/14 15:05:51;;;;;;;;;;;;;;;;;;6246912;23;19920;-69
2023/12/14 15:08:18;;;;;;;;;;;;;;;;;;6246975;23;19920;-69
2023/12/14 15:10:45;;;;;;;;;;;;;;;;;;6245036;22;20336;-67
2023/12/14 15:13:12;;;;;;;;;;;;;;;;;;6246915;23;19931;-68
2023/12/14 15:15:39;;;;;;;;;;;;;;;;;;6246288;23;19919;-69
2023/12/14 15:18:06;;;;;;;;;;;;;;;;;;6246605;23;19919;-69
2023/12/14 15:20:33;;;;;;;;;;;;;;;;;;6246655;23;19919;-69
2023/12/14 15:23:00;;;;;;;;;;;;;;;;;;6246606;23;19920;-68
2023/12/14 15:25:26;;;;;;;;;;;;;;;;;;6246583;23;19926;-68
2023/12/14 15:27:53;;;;;;;;;;;;;;;;;;6246586;23;19927;-68
2023/12/14 15:30:20;;;;;;;;;;;;;;;;;;6246879;23;19920;-69
2023/12/14 15:32:47;;;;;;;;;;;;;;;;;;6246169;23;20255;-68
2023/12/14 15:35:14;;;;;;;;;;;;;;;;;;6246473;23;19919;-69
2023/12/14 15:37:41;;;;;;;;;;;;;;;;;;6248019;23;19927;-69
2023/12/14 15:40:08;;;;;;;;;;;;;;;;;;6248522;23;19920;-69
2023/12/14 15:42:35;;;;;;;;;;;;;;;;;;6248532;23;19920;-69
2023/12/14 15:45:02;;;;;;;;;;;;;;;;;;6248437;23;19929;-69
2023/12/14 15:47:29;;;;;;;;;;;;;;;;;;6248450;23;19919;-69
2023/12/14 15:49:56;;;;;;;;;;;;;;;;;;6248331;23;19920;-69
2023/12/14 15:52:23;;;;;;;;;;;;;;;;;;6248543;23;19919;-69
2023/12/14 15:54:50;;;;;;;;;;;;;;;;;;6248532;23;19920;-68
2023/12/14 15:57:17;;;;;;;;;;;;;;;;;;6248130;23;20343;-69
2023/12/14 15:59:44;;;;;;;;;;;;;;;;;;6248230;23;19958;-70
2023/12/14 16:02:11;;;;;;;;;;;;;;;;;;6248381;23;19927;-69
2023/12/14 16:04:38;;;;;;;;;;;;;;;;;;6248431;23;19919;-70
2023/12/14 16:07:05;;;;;;;;;;;;;;;;;;6248419;23;19920;-69
2023/12/14 16:09:32;;;;;;;;;;;;;;;;;;6248384;23;19923;-69
2023/12/14 16:12:03;;;;;;;;;;;;;;;;;;6248591;23;19942;-69
2023/12/14 16:14:30;;;;;;;;;;;;;;;;;;6250059;23;20309;-68
2023/12/14 16:16:57;;;;;;;;;;;;;;;;;;6248927;23;19975;-68
2023/12/14 16:19:23;;;;;;;;;;;;;;;;;;6248843;23;20231;-68
2023/12/14 16:21:50;;;;;;;;;;;;;;;;;;6249143;23;19926;-68
2023/12/14 16:24:17;;;;;;;;;;;;;;;;;;6248986;23;19974;-68
2023/12/14 16:26:45;;;;;;;;;;;;;;;;;;6247877;23;20251;-68
2023/12/14 16:29:12;;;;;;;;;;;;;;;;;;6248358;23;19924;-72
2023/12/14 16:31:39;;;;;;;;;;;;;;;;;;6248186;23;19927;-67
2023/12/14 16:34:06;;;;;;;;;;;;;;;;;;6248264;23;19920;-68
2023/12/14 16:36:33;;;;;;;;;;;;;;;;;;6247780;23;20259;-68
2023/12/14 16:39:00;;;;;;;;;;;;;;;;;;6247868;23;19926;-68
2023/12/14 16:41:27;;;;;;;;;;;;;;;;;;6247419;23;20255;-68
2023/12/14 16:43:54;;;;;;;;;;;;;;;;;;6247884;23;19927;-69
2023/12/14 16:46:22;;;;;;;;;;;;;;;;;;6247459;23;20346;-69
2023/12/14 16:48:50;;;;;;;;;;;;;;;;;;6247153;23;20006;-69
2023/12/14 16:51:17;;;;;;;;;;;;;;;;;;6247690;23;19919;-69
2023/12/14 16:53:44;;;;;;;;;;;;;;;;;;6247719;23;19919;-69
2023/12/14 16:56:11;;;;;;;;;;;;;;;;;;6247730;23;20006;-69
2023/12/14 16:58:38;;;;;;;;;;;;;;;;;;6247681;23;19920;-69
2023/12/14 17:01:05;;;;;;;;;;;;;;;;;;6247330;23;20339;-69
2023/12/14 17:03:32;;;;;;;;;;;;;;;;;;6247631;23;19920;-69
2023/12/14 17:05:59;;;;;;;;;;;;;;;;;;6247710;23;19926;-70
2023/12/14 17:08:27;;;;;;;;;;;;;;;;;;6247723;23;19920;-68
2023/12/14 17:10:54;;;;;;;;;;;;;;;;;;6247411;23;19982;-68
2023/12/14 17:13:21;;;;;;;;;;;;;;;;;;6247522;23;19920;-68
2023/12/14 17:15:48;;;;;;;;;;;;;;;;;;6247116;23;20342;-68
2023/12/14 17:18:15;;;;;;;;;;;;;;;;;;6247549;23;19927;-68
2023/12/14 17:20:42;;;;;;;;;;;;;;;;;;6247476;23;19987;-68
2023/12/14 17:23:09;;;;;;;;;;;;;;;;;;6247478;23;19920;-68
2023/12/14 17:25:36;;;;;;;;;;;;;;;;;;6247895;23;19919;-68
2023/12/14 17:28:03;;;;;;;;;;;;;;;;;;6247777;23;20331;-68
2023/12/14 17:30:30;;;;;;;;;;;;;;;;;;6247302;23;20307;-68
2023/12/14 17:32:57;;;;;;;;;;;;;;;;;;6248910;23;19920;-68
2023/12/14 17:35:24;;;;;;;;;;;;;;;;;;6247304;23;19919;-68
2023/12/14 17:37:51;;;;;;;;;;;;;;;;;;6247501;23;19920;-68
2023/12/14 17:40:18;;;;;;;;;;;;;;;;;;6247688;23;19927;-68
2023/12/14 17:42:45;;;;;;;;;;;;;;;;;;6247449;23;19920;-68
2023/12/14 17:45:12;;;;;;;;;;;;;;;;;;6247479;23;19920;-68
2023/12/14 17:47:39;;;;;;;;;;;;;;;;;;6247350;23;19942;-68
2023/12/14 17:50:05;;;;;;;;;;;;;;;;;;6247714;23;19926;-68
2023/12/14 17:52:32;;;;;;;;;;;;;;;;;;6247476;23;19919;-68
2023/12/14 17:54:59;;;;;;;;;;;;;;;;;;6247545;23;19919;-69
2023/12/14 17:57:26;;;;;;;;;;;;;;;;;;6247576;23;20247;-68
2023/12/14 17:59:53;;;;;;;;;;;;;;;;;;6249287;23;19924;-67
2023/12/14 18:02:20;;;;;;;;;;;;;;;;;;6248614;23;20366;-67
2023/12/14 18:04:47;;;;;;;;;;;;;;;;;;6250725;23;19920;-69
2023/12/14 18:07:14;;;;;;;;;;;;;;;;;;6249147;23;19919;-67
2023/12/14 18:09:41;;;;;;;;;;;;;;;;;;6247470;23;19926;-68
2023/12/14 18:12:08;;;;;;;;;;;;;;;;;;6246831;23;19990;-69
2023/12/14 18:14:35;;;;;;;;;;;;;;;;;;6246812;23;20399;-69
2023/12/14 18:17:02;;;;;;;;;;;;;;;;;;6247224;23;19919;-67
2023/12/14 18:19:29;;;;;;;;;;;;;;;;;;6247284;23;19926;-67
2023/12/14 18:21:56;;;;;;;;;;;;;;;;;;6247006;23;19920;-67
2023/12/14 18:24:24;;;;;;;;;;;;;;;;;;6246879;23;19920;-67
2023/12/14 18:26:51;;;;;;;;;;;;;;;;;;6247060;23;19923;-67
2023/12/14 18:29:18;;;;;;;;;;;;;;;;;;6246953;23;19927;-69
2023/12/14 18:31:44;;;;;;;;;;;;;;;;;;6246938;23;19920;-67
2023/12/14 18:34:11;;;;;;;;;;;;;;;;;;6247008;23;19919;-66
2023/12/14 18:36:38;;;;;;;;;;;;;;;;;;6247284;23;19926;-67
2023/12/14 18:39:05;;;;;;;;;;;;;;;;;;6246937;23;19920;-67
2023/12/14 18:41:32;;;;;;;;;;;;;;;;;;6246784;23;19927;-68
2023/12/14 18:43:59;;;;;;;;;;;;;;;;;;6246931;23;19920;-67
2023/12/14 18:46:26;;;;;;;;;;;;;;;;;;6246554;23;19920;-66
2023/12/14 18:48:53;;;;;;;;;;;;;;;;;;6247089;23;19919;-66
2023/12/14 18:51:20;;;;;;;;;;;;;;;;;;6246747;23;19934;-68
2023/12/14 18:53:47;;;;;;;;;;;;;;;;;;6246979;23;19919;-67
2023/12/14 18:56:14;;;;;;;;;;;;;;;;;;6247033;23;19924;-67
2023/12/14 18:58:41;;;;;;;;;;;;;;;;;;6246954;23;19927;-67
2023/12/14 19:01:08;;;;;;;;;;;;;;;;;;6246746;23;20086;-67
2023/12/14 19:03:37;;;;;;;;;;;;;;;;;;6246914;23;19919;-68
2023/12/14 19:06:07;;;;;;;;;;;;;;;;;;6246923;23;19919;-67
2023/12/14 19:08:34;;;;;;;;;;;;;;;;;;6246617;23;19930;-68
2023/12/14 19:11:01;;;;;;;;;;;;;;;;;;6246857;23;19919;-68
2023/12/14 19:13:28;;;;;;;;;;;;;;;;;;6249436;23;19919;-69
2023/12/14 19:15:55;;;;;;;;;;;;;;;;;;6248941;23;19926;-68
2023/12/14 19:18:22;;;;;;;;;;;;;;;;;;6249239;23;19982;-69
2023/12/14 19:20:51;;;;;;;;;;;;;;;;;;6248140;23;21277;-68
2023/12/14 19:23:18;;;;;;;;;;;;;;;;;;6248574;23;20343;-68
2023/12/14 19:25:45;;;;;;;;;;;;;;;;;;6248757;23;20308;-68
2023/12/14 19:28:13;;;;;;;;;;;;;;;;;;6249040;23;19919;-70
2023/12/14 19:30:40;;;;;;;;;;;;;;;;;;6248594;23;19924;-69
2023/12/14 19:33:08;;;;;;;;;;;;;;;;;;6248942;23;19919;-69
2023/12/14 19:35:35;;;;;;;;;;;;;;;;;;6248866;23;19924;-68
2023/12/14 19:38:02;;;;;;;;;;;;;;;;;;6248942;23;20343;-69
2023/12/14 19:40:29;;;;;;;;;;;;;;;;;;6249008;23;19919;-69
2023/12/14 19:42:56;;;;;;;;;;;;;;;;;;6248902;23;20243;-69
2023/12/14 19:45:25;;;;;;;;;;;;;;;;;;6249121;23;20259;-74
2023/12/14 19:47:51;;;;;;;;;;;;;;;;;;6249029;23;19926;-69
2023/12/14 19:50:18;;;;;;;;;;;;;;;;;;6248444;23;19919;-69
2023/12/14 19:52:46;;;;;;;;;;;;;;;;;;6249192;23;19926;-69
2023/12/14 19:55:14;;;;;;;;;;;;;;;;;;6249035;23;19943;-69
2023/12/14 19:57:41;;;;;;;;;;;;;;;;;;6248775;23;19954;-68
2023/12/14 20:00:09;;;;;;;;;;;;;;;;;;6248598;23;19942;-68
2023/12/14 20:02:36;;;;;;;;;;;;;;;;;;6248913;23;19920;-69
2023/12/14 20:05:03;;;;;;;;;;;;;;;;;;6248480;23;20335;-69
2023/12/14 20:07:30;;;;;;;;;;;;;;;;;;6249095;23;19919;-70
2023/12/14 20:09:57;;;;;;;;;;;;;;;;;;6248738;23;19927;-69
2023/12/14 20:12:24;;;;;;;;;;;;;;;;;;6248017;23;19927;-70
2023/12/14 20:14:51;;;;;;;;;;;;;;;;;;6248718;23;19923;-69
2023/12/14 20:17:18;;;;;;;;;;;;;;;;;;6249184;23;20247;-68
2023/12/14 20:19:45;;;;;;;;;;;;;;;;;;6248391;23;19930;-69
2023/12/14 20:22:12;;;;;;;;;;;;;;;;;;6248396;23;19926;-71
2023/12/14 20:24:39;;;;;;;;;;;;;;;;;;6249187;23;20002;-69
2023/12/14 20:27:06;;;;;;;;;;;;;;;;;;6248846;23;20340;-67
2023/12/14 20:29:33;;;;;;;;;;;;;;;;;;6248293;23;19954;-68
2023/12/14 20:32:00;;;;;;;;;;;;;;;;;;6248411;23;19926;-68
2023/12/14 20:34:27;;;;;;;;;;;;;;;;;;6248247;23;19926;-68
2023/12/14 20:36:54;;;;;;;;;;;;;;;;;;6248145;23;20288;-68
2023/12/14 20:39:21;;;;;;;;;;;;;;;;;;6248806;23;19920;-67
2023/12/14 20:41:48;;;;;;;;;;;;;;;;;;6250214;23;19920;-69
2023/12/14 20:44:15;;;;;;;;;;;;;;;;;;6250897;23;19923;-68
2023/12/14 20:46:42;;;;;;;;;;;;;;;;;;6248008;23;20254;-70
2023/12/14 20:49:09;;;;;;;;;;;;;;;;;;6248560;23;19920;-69
2023/12/14 20:51:36;;;;;;;;;;;;;;;;;;6247897;23;20365;-69
2023/12/14 20:54:03;;;;;;;;;;;;;;;;;;6248234;23;19926;-69
2023/12/14 20:56:30;;;;;;;;;;;;;;;;;;6247862;23;20251;-67
2023/12/14 20:58:57;;;;;;;;;;;;;;;;;;6248140;23;19926;-68
2023/12/14 21:01:24;;;;;;;;;;;;;;;;;;6248097;23;20361;-68
2023/12/14 21:03:51;;;;;;;;;;;;;;;;;;6247992;23;19919;-67
2023/12/14 21:06:18;;;;;;;;;;;;;;;;;;6248545;23;20331;-68
2023/12/14 21:08:45;;;;;;;;;;;;;;;;;;6248131;23;20352;-69
2023/12/14 21:11:12;;;;;;;;;;;;;;;;;;6247849;23;19930;-68
2023/12/14 21:13:38;;;;;;;;;;;;;;;;;;6247847;23;19919;-68
2023/12/14 21:16:05;;;;;;;;;;;;;;;;;;6247724;23;19942;-67
2023/12/14 21:18:32;;;;;;;;;;;;;;;;;;6247992;23;19941;-67
2023/12/14 21:20:59;;;;;;;;;;;;;;;;;;6247783;23;19924;-69
2023/12/14 21:23:26;;;;;;;;;;;;;;;;;;6247872;23;19946;-67
2023/12/14 21:26:04;;;;;;;;;;;;;;;;;;6248968;23;19926;-68
2023/12/14 21:28:30;;;;;;;;;;;;;;;;;;6247890;23;19919;-68
2023/12/14 21:30:56;;;;;;;;;;;;;;;;;;6247832;23;19951;-67
2023/12/14 21:33:23;;;;;;;;;;;;;;;;;;6248266;23;19920;-68
2023/12/14 21:35:51;;;;;;;;;;;;;;;;;;6247637;23;19919;-67
2023/12/14 21:38:18;;;;;;;;;;;;;;;;;;6247078;23;19920;-68
2023/12/14 21:40:45;;;;;;;;;;;;;;;;;;6247459;23;19919;-68
2023/12/14 21:43:12;;;;;;;;;;;;;;;;;;6247911;23;19920;-68
2023/12/14 21:45:39;;;;;;;;;;;;;;;;;;6247292;23;19941;-67
2023/12/14 21:48:06;;;;;;;;;;;;;;;;;;6247153;23;19923;-68
2023/12/14 21:50:33;;;;;;;;;;;;;;;;;;6247127;23;19919;-68
2023/12/14 21:53:00;;;;;;;;;;;;;;;;;;6247036;23;19920;-67
2023/12/14 21:55:27;;;;;;;;;;;;;;;;;;6247165;23;19920;-67
2023/12/14 21:57:54;;;;;;;;;;;;;;;;;;6246941;23;19919;-67
2023/12/14 22:00:21;;;;;;;;;;;;;;;;;;6246797;23;19920;-67
2023/12/14 22:02:48;;;;;;;;;;;;;;;;;;6246996;23;19990;-67
2023/12/14 22:05:15;;;;;;;;;;;;;;;;;;6247034;23;19919;-68
2023/12/14 22:07:42;;;;;;;;;;;;;;;;;;6246898;23;19926;-67
2023/12/14 22:10:15;;;;;;;;;;;;;;;;;;6246535;23;20366;-67
2023/12/14 22:12:42;;;;;;;;;;;;;;;;;;6246455;23;19926;-68
